sensor_id;sensor_type;location;lat;lon;timestamp;pressure;altitude;pressure_sealevel;temperature;humidity
79534;BME280;68982;52.160;6.736;2024-02-04T00:00:07;101889.91;;;8.96;100.00
79534;BME280;68982;52.160;6.736;2024-02-04T00:02:33;101886.22;;;8.97;100.00
79534;BME280;68982;52.160;6.736;2024-02-04T00:04:58;101888.06;;;8.97;100.00
79534;BME280;68982;52.160;6.736;2024-02-04T00:07:23;101889.91;;;8.96;100.00
79534;BME280;68982;52.160;6.736;2024-02-04T00:09:48;101894.59;;;8.94;100.00
79534;BME280;68982;52.160;6.736;2024-02-04T00:12:14;101894.75;;;8.92;100.00
79534;BME280;68982;52.160;6.736;2024-02-04T00:14:39;101884.22;;;8.99;100.00
79534;BME280;68982;52.160;6.736;2024-02-04T00:17:05;101884.34;;;8.98;100.00
79534;BME280;68982;52.160;6.736;2024-02-04T00:19:30;101887.91;;;8.98;100.00
79534;BME280;68982;52.160;6.736;2024-02-04T00:21:55;101889.91;;;8.96;100.00
79534;BME280;68982;52.160;6.736;2024-02-04T00:24:21;101890.19;;;8.93;100.00
79534;BME280;68982;52.160;6.736;2024-02-04T00:26:46;101892.44;;;8.98;100.00
79534;BME280;68982;52.160;6.736;2024-02-04T00:29:12;101881.28;;;8.92;100.00
79534;BME280;68982;52.160;6.736;2024-02-04T00:31:37;101886.81;;;8.91;100.00
79534;BME280;68982;52.160;6.736;2024-02-04T00:34:02;101887.22;;;8.96;100.00
79534;BME280;68982;52.160;6.736;2024-02-04T00:36:28;101890.06;;;8.95;100.00
79534;BME280;68982;52.160;6.736;2024-02-04T00:38:53;101891.03;;;8.93;100.00
79534;BME280;68982;52.160;6.736;2024-02-04T00:41:19;101896.28;;;8.95;100.00
79534;BME280;68982;52.160;6.736;2024-02-04T00:43:44;101901.50;;;8.97;100.00
79534;BME280;68982;52.160;6.736;2024-02-04T00:46:09;101891.91;;;8.94;100.00
79534;BME280;68982;52.160;6.736;2024-02-04T00:48:38;101872.59;;;8.81;100.00
79534;BME280;68982;52.160;6.736;2024-02-04T00:51:03;101903.75;;;9.01;100.00
79534;BME280;68982;52.160;6.736;2024-02-04T00:53:29;101900.03;;;9.02;100.00
79534;BME280;68982;52.160;6.736;2024-02-04T00:56:02;101899.34;;;9.00;100.00
79534;BME280;68982;52.160;6.736;2024-02-04T00:58:27;101906.56;;;9.00;100.00
79534;BME280;68982;52.160;6.736;2024-02-04T01:00:53;101904.19;;;8.97;100.00
79534;BME280;68982;52.160;6.736;2024-02-04T01:03:18;101904.59;;;9.02;100.00
79534;BME280;68982;52.160;6.736;2024-02-04T01:05:44;101910.97;;;9.01;100.00
79534;BME280;68982;52.160;6.736;2024-02-04T01:08:09;101904.34;;;8.95;100.00
79534;BME280;68982;52.160;6.736;2024-02-04T01:10:34;101919.03;;;9.01;100.00
79534;BME280;68982;52.160;6.736;2024-02-04T01:13:00;101902.34;;;8.97;100.00
79534;BME280;68982;52.160;6.736;2024-02-04T01:15:26;101914.50;;;9.01;100.00
79534;BME280;68982;52.160;6.736;2024-02-04T01:17:51;101912.13;;;8.98;100.00
79534;BME280;68982;52.160;6.736;2024-02-04T01:20:18;101915.81;;;8.97;100.00
79534;BME280;68982;52.160;6.736;2024-02-04T01:22:43;101920.47;;;8.95;100.00
79534;BME280;68982;52.160;6.736;2024-02-04T01:25:08;101901.28;;;8.90;100.00
79534;BME280;68982;52.160;6.736;2024-02-04T01:27:34;101911.88;;;8.91;100.00
79534;BME280;68982;52.160;6.736;2024-02-04T01:29:59;101915.09;;;8.95;100.00
79534;BME280;68982;52.160;6.736;2024-02-04T01:32:24;101903.50;;;8.95;100.00
79534;BME280;68982;52.160;6.736;2024-02-04T01:34:50;101916.41;;;8.91;100.00
79534;BME280;68982;52.160;6.736;2024-02-04T01:37:15;101921.31;;;8.96;100.00
79534;BME280;68982;52.160;6.736;2024-02-04T01:39:40;101917.09;;;8.93;100.00
79534;BME280;68982;52.160;6.736;2024-02-04T01:42:06;101907.25;;;8.84;100.00
79534;BME280;68982;52.160;6.736;2024-02-04T01:44:31;101912.31;;;8.87;100.00
79534;BME280;68982;52.160;6.736;2024-02-04T01:46:57;101917.31;;;8.82;100.00
79534;BME280;68982;52.160;6.736;2024-02-04T01:49:23;101910.53;;;8.78;100.00
79534;BME280;68982;52.160;6.736;2024-02-04T01:51:48;101899.38;;;8.73;100.00
79534;BME280;68982;52.160;6.736;2024-02-04T01:54:14;101901.06;;;8.74;100.00
79534;BME280;68982;52.160;6.736;2024-02-04T01:56:40;101900.22;;;8.73;100.00
79534;BME280;68982;52.160;6.736;2024-02-04T01:59:06;101897.72;;;8.71;100.00
79534;BME280;68982;52.160;6.736;2024-02-04T02:01:32;101891.91;;;8.66;100.00
79534;BME280;68982;52.160;6.736;2024-02-04T02:03:57;101887.56;;;8.65;100.00
79534;BME280;68982;52.160;6.736;2024-02-04T02:06:23;101889.69;;;8.62;100.00
79534;BME280;68982;52.160;6.736;2024-02-04T02:08:49;101874.91;;;8.48;100.00
79534;BME280;68982;52.160;6.736;2024-02-04T02:11:21;101896.09;;;8.51;100.00
79534;BME280;68982;52.160;6.736;2024-02-04T02:13:57;101897.94;;;8.50;100.00
79534;BME280;68982;52.160;6.736;2024-02-04T02:16:26;101895.31;;;8.41;100.00
79534;BME280;68982;52.160;6.736;2024-02-04T02:18:55;101892.72;;;8.39;100.00
79534;BME280;68982;52.160;6.736;2024-02-04T02:21:36;101894.88;;;8.45;100.00
79534;BME280;68982;52.160;6.736;2024-02-04T02:26:55;101890.19;;;8.38;100.00
79534;BME280;68982;52.160;6.736;2024-02-04T02:29:24;101893.88;;;8.37;100.00
79534;BME280;68982;52.160;6.736;2024-02-04T02:31:49;101892.16;;;8.36;100.00
79534;BME280;68982;52.160;6.736;2024-02-04T02:34:15;101880.72;;;8.34;100.00
79534;BME280;68982;52.160;6.736;2024-02-04T02:36:44;101891.91;;;8.39;100.00
79534;BME280;68982;52.160;6.736;2024-02-04T02:39:32;101889.22;;;8.39;100.00
79534;BME280;68982;52.160;6.736;2024-02-04T02:41:59;101894.44;;;8.40;100.00
79534;BME280;68982;52.160;6.736;2024-02-04T02:44:26;101884.97;;;8.36;100.00
79534;BME280;68982;52.160;6.736;2024-02-04T02:46:54;101896.25;;;8.40;100.00
79534;BME280;68982;52.160;6.736;2024-02-04T02:49:21;101883.97;;;8.37;100.00
79534;BME280;68982;52.160;6.736;2024-02-04T02:51:46;101886.78;;;8.36;100.00
79534;BME280;68982;52.160;6.736;2024-02-04T02:54:11;101883.00;;;8.28;100.00
79534;BME280;68982;52.160;6.736;2024-02-04T02:56:37;101889.41;;;8.27;100.00
79534;BME280;68982;52.160;6.736;2024-02-04T02:59:02;101882.88;;;8.30;100.00
79534;BME280;68982;52.160;6.736;2024-02-04T03:01:29;101880.31;;;8.28;100.00
79534;BME280;68982;52.160;6.736;2024-02-04T03:03:54;101875.25;;;8.25;100.00
79534;BME280;68982;52.160;6.736;2024-02-04T03:06:19;101873.41;;;8.26;100.00
79534;BME280;68982;52.160;6.736;2024-02-04T03:08:45;101852.81;;;8.17;100.00
79534;BME280;68982;52.160;6.736;2024-02-04T03:11:10;101873.28;;;8.18;100.00
79534;BME280;68982;52.160;6.736;2024-02-04T03:13:38;101875.13;;;8.17;100.00
79534;BME280;68982;52.160;6.736;2024-02-04T03:16:04;101864.69;;;8.14;100.00
79534;BME280;68982;52.160;6.736;2024-02-04T03:18:29;101851.53;;;8.11;100.00
79534;BME280;68982;52.160;6.736;2024-02-04T03:20:55;101852.94;;;8.15;100.00
79534;BME280;68982;52.160;6.736;2024-02-04T03:23:20;101856.78;;;8.13;100.00
79534;BME280;68982;52.160;6.736;2024-02-04T03:25:45;101852.41;;;8.12;100.00
79534;BME280;68982;52.160;6.736;2024-02-04T03:28:11;101859.03;;;8.17;100.00
79534;BME280;68982;52.160;6.736;2024-02-04T03:30:36;101865.41;;;8.16;100.00
79534;BME280;68982;52.160;6.736;2024-02-04T03:33:01;101858.63;;;8.12;100.00
79534;BME280;68982;52.160;6.736;2024-02-04T03:35:30;101875.84;;;8.19;100.00
79534;BME280;68982;52.160;6.736;2024-02-04T03:37:55;101886.34;;;8.13;100.00
79534;BME280;68982;52.160;6.736;2024-02-04T03:40:20;101873.91;;;8.12;100.00
79534;BME280;68982;52.160;6.736;2024-02-04T03:42:49;101889.72;;;8.15;100.00
79534;BME280;68982;52.160;6.736;2024-02-04T03:45:14;101878.97;;;8.15;100.00
79534;BME280;68982;52.160;6.736;2024-02-04T03:47:40;101864.44;;;8.07;100.00
79534;BME280;68982;52.160;6.736;2024-02-04T03:50:05;101872.75;;;8.14;100.00
79534;BME280;68982;52.160;6.736;2024-02-04T03:52:31;101860.63;;;8.10;100.00
79534;BME280;68982;52.160;6.736;2024-02-04T03:54:56;101877.00;;;8.07;100.00
79534;BME280;68982;52.160;6.736;2024-02-04T03:57:24;101882.81;;;8.12;100.00
79534;BME280;68982;52.160;6.736;2024-02-04T03:59:49;101890.88;;;8.12;100.00
79534;BME280;68982;52.160;6.736;2024-02-04T04:02:15;101887.63;;;8.08;100.00
79534;BME280;68982;52.160;6.736;2024-02-04T04:04:40;101902.31;;;8.04;100.00
79534;BME280;68982;52.160;6.736;2024-02-04T04:07:12;101893.72;;;8.01;100.00
79534;BME280;68982;52.160;6.736;2024-02-04T04:09:37;101895.72;;;7.99;100.00
79534;BME280;68982;52.160;6.736;2024-02-04T04:12:03;101897.97;;;8.03;100.00
79534;BME280;68982;52.160;6.736;2024-02-04T04:14:28;101882.81;;;8.02;100.00
79534;BME280;68982;52.160;6.736;2024-02-04T04:16:54;101877.44;;;8.02;100.00
79534;BME280;68982;52.160;6.736;2024-02-04T04:19:19;101881.84;;;8.03;100.00
79534;BME280;68982;52.160;6.736;2024-02-04T04:21:44;101880.88;;;7.95;100.00
79534;BME280;68982;52.160;6.736;2024-02-04T04:24:10;101890.59;;;7.96;100.00
79534;BME280;68982;52.160;6.736;2024-02-04T04:26:35;101903.34;;;7.94;100.00
79534;BME280;68982;52.160;6.736;2024-02-04T04:29:00;101892.47;;;7.95;100.00
79534;BME280;68982;52.160;6.736;2024-02-04T04:31:26;101897.00;;;7.95;100.00
79534;BME280;68982;52.160;6.736;2024-02-04T04:33:51;101875.09;;;7.89;100.00
79534;BME280;68982;52.160;6.736;2024-02-04T04:36:18;101878.31;;;7.93;100.00
79534;BME280;68982;52.160;6.736;2024-02-04T04:38:44;101869.44;;;7.93;100.00
79534;BME280;68982;52.160;6.736;2024-02-04T04:41:09;101869.88;;;7.88;100.00
79534;BME280;68982;52.160;6.736;2024-02-04T04:43:36;101860.66;;;7.91;100.00
79534;BME280;68982;52.160;6.736;2024-02-04T04:46:02;101861.69;;;7.89;100.00
79534;BME280;68982;52.160;6.736;2024-02-04T04:48:27;101872.25;;;7.91;100.00
79534;BME280;68982;52.160;6.736;2024-02-04T04:50:53;101875.94;;;7.90;100.00
79534;BME280;68982;52.160;6.736;2024-02-04T04:53:18;101869.72;;;7.89;100.00
79534;BME280;68982;52.160;6.736;2024-02-04T04:55:43;101864.50;;;7.88;100.00
79534;BME280;68982;52.160;6.736;2024-02-04T04:58:09;101858.28;;;7.87;100.00
79534;BME280;68982;52.160;6.736;2024-02-04T05:00:34;101867.75;;;7.92;100.00
79534;BME280;68982;52.160;6.736;2024-02-04T05:02:59;101874.09;;;7.91;100.00
79534;BME280;68982;52.160;6.736;2024-02-04T05:05:24;101860.53;;;7.92;100.00
79534;BME280;68982;52.160;6.736;2024-02-04T05:07:50;101849.09;;;7.90;100.00
79534;BME280;68982;52.160;6.736;2024-02-04T05:10:15;101857.00;;;7.92;100.00
79534;BME280;68982;52.160;6.736;2024-02-04T05:12:40;101841.72;;;7.92;100.00
79534;BME280;68982;52.160;6.736;2024-02-04T05:15:06;101836.38;;;7.92;100.00
79534;BME280;68982;52.160;6.736;2024-02-04T05:17:32;101823.38;;;7.87;100.00
79534;BME280;68982;52.160;6.736;2024-02-04T05:19:58;101819.81;;;7.97;100.00
79534;BME280;68982;52.160;6.736;2024-02-04T05:22:24;101831.25;;;7.99;100.00
79534;BME280;68982;52.160;6.736;2024-02-04T05:24:49;101826.31;;;7.94;100.00
79534;BME280;68982;52.160;6.736;2024-02-04T05:27:14;101821.94;;;7.93;100.00
79534;BME280;68982;52.160;6.736;2024-02-04T05:29:40;101823.31;;;7.97;100.00
79534;BME280;68982;52.160;6.736;2024-02-04T05:32:05;101817.97;;;7.97;100.00
79534;BME280;68982;52.160;6.736;2024-02-04T05:34:30;101825.56;;;8.02;100.00
79534;BME280;68982;52.160;6.736;2024-02-04T05:36:57;101833.75;;;8.00;100.00
79534;BME280;68982;52.160;6.736;2024-02-04T05:39:22;101836.75;;;7.97;100.00
79534;BME280;68982;52.160;6.736;2024-02-04T05:41:49;101827.56;;;8.00;100.00
79534;BME280;68982;52.160;6.736;2024-02-04T05:44:14;101828.97;;;8.04;100.00
79534;BME280;68982;52.160;6.736;2024-02-04T05:46:39;101836.03;;;8.05;100.00
79534;BME280;68982;52.160;6.736;2024-02-04T05:49:05;101824.72;;;8.01;100.00
79534;BME280;68982;52.160;6.736;2024-02-04T05:51:41;101833.94;;;7.99;100.00
79534;BME280;68982;52.160;6.736;2024-02-04T05:54:07;101844.81;;;7.97;100.00
79534;BME280;68982;52.160;6.736;2024-02-04T05:56:32;101839.88;;;7.93;100.00
79534;BME280;68982;52.160;6.736;2024-02-04T05:58:58;101839.59;;;7.96;100.00
79534;BME280;68982;52.160;6.736;2024-02-04T06:01:23;101809.13;;;7.77;100.00
79534;BME280;68982;52.160;6.736;2024-02-04T06:03:49;101837.06;;;7.94;100.00
79534;BME280;68982;52.160;6.736;2024-02-04T06:06:15;101826.31;;;7.94;100.00
79534;BME280;68982;52.160;6.736;2024-02-04T06:08:42;101822.94;;;7.92;100.00
79534;BME280;68982;52.160;6.736;2024-02-04T06:11:10;101821.41;;;7.89;100.00
79534;BME280;68982;52.160;6.736;2024-02-04T06:13:36;101829.59;;;7.88;100.00
79534;BME280;68982;52.160;6.736;2024-02-04T06:16:01;101820.81;;;7.86;100.00
79534;BME280;68982;52.160;6.736;2024-02-04T06:18:27;101817.03;;;7.79;100.00
79534;BME280;68982;52.160;6.736;2024-02-04T06:20:52;101838.91;;;7.84;100.00
79534;BME280;68982;52.160;6.736;2024-02-04T06:23:18;101847.69;;;7.86;100.00
79534;BME280;68982;52.160;6.736;2024-02-04T06:25:44;101842.88;;;7.80;100.00
79534;BME280;68982;52.160;6.736;2024-02-04T06:28:10;101848.69;;;7.85;100.00
79534;BME280;68982;52.160;6.736;2024-02-04T06:30:35;101830.59;;;7.77;100.00
79534;BME280;68982;52.160;6.736;2024-02-04T06:33:01;101842.50;;;7.75;100.00
79534;BME280;68982;52.160;6.736;2024-02-04T06:35:27;101836.97;;;7.76;100.00
79534;BME280;68982;52.160;6.736;2024-02-04T06:37:53;101836.81;;;7.78;100.00
79534;BME280;68982;52.160;6.736;2024-02-04T06:40:18;101826.50;;;7.73;100.00
79534;BME280;68982;52.160;6.736;2024-02-04T06:42:49;101830.22;;;7.72;100.00
79534;BME280;68982;52.160;6.736;2024-02-04T06:45:15;101840.25;;;7.70;100.00
79534;BME280;68982;52.160;6.736;2024-02-04T06:47:43;101835.31;;;7.65;100.00
79534;BME280;68982;52.160;6.736;2024-02-04T06:50:09;101834.47;;;7.65;100.00
79534;BME280;68982;52.160;6.736;2024-02-04T06:52:39;101840.81;;;7.64;100.00
79534;BME280;68982;52.160;6.736;2024-02-04T06:55:05;101838.44;;;7.61;100.00
79534;BME280;68982;52.160;6.736;2024-02-04T06:57:30;101836.44;;;7.63;100.00
79534;BME280;68982;52.160;6.736;2024-02-04T06:59:55;101836.19;;;7.56;100.00
79534;BME280;68982;52.160;6.736;2024-02-04T07:02:21;101837.84;;;7.57;100.00
79534;BME280;68982;52.160;6.736;2024-02-04T07:04:46;101845.47;;;7.62;100.00
79534;BME280;68982;52.160;6.736;2024-02-04T07:07:11;101838.88;;;7.56;100.00
79534;BME280;68982;52.160;6.736;2024-02-04T07:09:37;101821.34;;;7.52;100.00
79534;BME280;68982;52.160;6.736;2024-02-04T07:12:02;101806.97;;;7.43;100.00
79534;BME280;68982;52.160;6.736;2024-02-04T07:14:27;101823.03;;;7.53;100.00
79534;BME280;68982;52.160;6.736;2024-02-04T07:16:53;101810.22;;;7.47;100.00
79534;BME280;68982;52.160;6.736;2024-02-04T07:19:18;101817.38;;;7.46;100.00
79534;BME280;68982;52.160;6.736;2024-02-04T07:21:44;101816.56;;;7.46;100.00
79534;BME280;68982;52.160;6.736;2024-02-04T07:24:09;101817.25;;;7.48;100.00
79534;BME280;68982;52.160;6.736;2024-02-04T07:26:35;101812.03;;;7.46;100.00
79534;BME280;68982;52.160;6.736;2024-02-04T07:29:00;101789.75;;;7.36;100.00
79534;BME280;68982;52.160;6.736;2024-02-04T07:31:25;101799.19;;;7.50;100.00
79534;BME280;68982;52.160;6.736;2024-02-04T07:33:51;101796.63;;;7.48;100.00
79534;BME280;68982;52.160;6.736;2024-02-04T07:36:16;101808.63;;;7.44;100.00
79534;BME280;68982;52.160;6.736;2024-02-04T07:38:41;101821.63;;;7.49;100.00
79534;BME280;68982;52.160;6.736;2024-02-04T07:41:07;101803.56;;;7.41;100.00
79534;BME280;68982;52.160;6.736;2024-02-04T07:43:32;101805.25;;;7.42;100.00
79534;BME280;68982;52.160;6.736;2024-02-04T07:45:57;101813.16;;;7.54;100.00
79534;BME280;68982;52.160;6.736;2024-02-04T07:48:23;101811.44;;;7.53;100.00
79534;BME280;68982;52.160;6.736;2024-02-04T07:50:48;101797.47;;;7.49;100.00
79534;BME280;68982;52.160;6.736;2024-02-04T07:53:13;101790.72;;;7.45;100.00
79534;BME280;68982;52.160;6.736;2024-02-04T07:55:39;101801.56;;;7.53;100.00
79534;BME280;68982;52.160;6.736;2024-02-04T07:58:04;101789.28;;;7.51;100.00
79534;BME280;68982;52.160;6.736;2024-02-04T08:00:29;101802.25;;;7.55;100.00
79534;BME280;68982;52.160;6.736;2024-02-04T08:02:55;101797.72;;;7.56;100.00
79534;BME280;68982;52.160;6.736;2024-02-04T08:05:20;101805.22;;;7.62;100.00
79534;BME280;68982;52.160;6.736;2024-02-04T08:07:46;101798.69;;;7.64;100.00
79534;BME280;68982;52.160;6.736;2024-02-04T08:10:11;101783.59;;;7.63;100.00
79534;BME280;68982;52.160;6.736;2024-02-04T08:12:37;101774.53;;;7.64;100.00
79534;BME280;68982;52.160;6.736;2024-02-04T08:15:03;101779.06;;;7.64;100.00
79534;BME280;68982;52.160;6.736;2024-02-04T08:17:28;101785.97;;;7.66;100.00
79534;BME280;68982;52.160;6.736;2024-02-04T08:19:59;101779.63;;;7.67;100.00
79534;BME280;68982;52.160;6.736;2024-02-04T08:22:24;101783.88;;;7.70;100.00
79534;BME280;68982;52.160;6.736;2024-02-04T08:24:50;101789.22;;;7.70;100.00
79534;BME280;68982;52.160;6.736;2024-02-04T08:27:16;101768.34;;;7.64;100.00
79534;BME280;68982;52.160;6.736;2024-02-04T08:29:43;101786.25;;;7.73;100.00
79534;BME280;68982;52.160;6.736;2024-02-04T08:32:08;101782.84;;;7.71;100.00
79534;BME280;68982;52.160;6.736;2024-02-04T08:34:33;101784.25;;;7.75;100.00
79534;BME280;68982;52.160;6.736;2024-02-04T08:36:59;101778.63;;;7.78;100.00
79534;BME280;68982;52.160;6.736;2024-02-04T08:39:24;101796.53;;;7.78;100.00
79534;BME280;68982;52.160;6.736;2024-02-04T08:41:51;101776.19;;;7.75;100.00
79534;BME280;68982;52.160;6.736;2024-02-04T08:44:16;101790.72;;;7.82;100.00
79534;BME280;68982;52.160;6.736;2024-02-04T08:46:41;101791.44;;;7.84;100.00
79534;BME280;68982;52.160;6.736;2024-02-04T08:49:07;101787.06;;;7.83;100.00
79534;BME280;68982;52.160;6.736;2024-02-04T08:51:32;101784.63;;;7.90;100.00
79534;BME280;68982;52.160;6.736;2024-02-04T08:53:57;101765.00;;;7.89;100.00
79534;BME280;68982;52.160;6.736;2024-02-04T08:56:23;101764.13;;;7.89;100.00
79534;BME280;68982;52.160;6.736;2024-02-04T08:58:48;101763.72;;;7.84;100.00
79534;BME280;68982;52.160;6.736;2024-02-04T09:01:13;101773.06;;;7.80;100.00
79534;BME280;68982;52.160;6.736;2024-02-04T09:03:39;101767.56;;;7.81;100.00
79534;BME280;68982;52.160;6.736;2024-02-04T09:06:05;101769.56;;;7.79;100.00
79534;BME280;68982;52.160;6.736;2024-02-04T09:08:31;101779.59;;;7.77;100.00
79534;BME280;68982;52.160;6.736;2024-02-04T09:10:56;101779.59;;;7.77;100.00
79534;BME280;68982;52.160;6.736;2024-02-04T09:13:22;101782.72;;;7.73;100.00
79534;BME280;68982;52.160;6.736;2024-02-04T09:15:49;101778.44;;;7.80;100.00
79534;BME280;68982;52.160;6.736;2024-02-04T09:18:14;101782.53;;;7.84;100.00
79534;BME280;68982;52.160;6.736;2024-02-04T09:20:40;101784.50;;;7.82;100.00
79534;BME280;68982;52.160;6.736;2024-02-04T09:23:05;101785.47;;;7.91;100.00
79534;BME280;68982;52.160;6.736;2024-02-04T09:25:30;101787.47;;;7.88;100.00
79534;BME280;68982;52.160;6.736;2024-02-04T09:27:56;101785.91;;;7.86;100.00
79534;BME280;68982;52.160;6.736;2024-02-04T09:30:21;101794.69;;;7.88;100.00
79534;BME280;68982;52.160;6.736;2024-02-04T09:32:47;101790.44;;;7.85;100.00
79534;BME280;68982;52.160;6.736;2024-02-04T09:35:12;101763.72;;;7.84;100.00
79534;BME280;68982;52.160;6.736;2024-02-04T09:37:37;101779.78;;;7.94;100.00
79534;BME280;68982;52.160;6.736;2024-02-04T09:40:03;101775.56;;;7.91;100.00
79534;BME280;68982;52.160;6.736;2024-02-04T09:42:29;101775.69;;;7.99;100.00
79534;BME280;68982;52.160;6.736;2024-02-04T09:44:56;101761.25;;;8.00;100.00
79534;BME280;68982;52.160;6.736;2024-02-04T09:47:22;101777.78;;;8.05;100.00
79534;BME280;68982;52.160;6.736;2024-02-04T09:49:48;101778.03;;;8.12;100.00
79534;BME280;68982;52.160;6.736;2024-02-04T09:52:18;101772.34;;;8.15;100.00
79534;BME280;68982;52.160;6.736;2024-02-04T09:54:47;101764.69;;;8.20;100.00
79534;BME280;68982;52.160;6.736;2024-02-04T09:57:14;101765.22;;;8.24;100.00
79534;BME280;68982;52.160;6.736;2024-02-04T09:59:41;101777.94;;;8.32;100.00
79534;BME280;68982;52.160;6.736;2024-02-04T10:02:08;101781.28;;;8.34;100.00
79534;BME280;68982;52.160;6.736;2024-02-04T10:04:33;101779.16;;;8.37;100.00
79534;BME280;68982;52.160;6.736;2024-02-04T10:06:59;101766.03;;;8.34;100.00
79534;BME280;68982;52.160;6.736;2024-02-04T10:09:25;101768.53;;;8.36;100.00
79534;BME280;68982;52.160;6.736;2024-02-04T10:11:51;101761.19;;;8.38;100.00
79534;BME280;68982;52.160;6.736;2024-02-04T10:14:16;101765.16;;;8.34;100.00
79534;BME280;68982;52.160;6.736;2024-02-04T10:16:43;101736.63;;;8.33;100.00
79534;BME280;68982;52.160;6.736;2024-02-04T10:19:09;101745.75;;;8.40;100.00
79534;BME280;68982;52.160;6.736;2024-02-04T10:21:34;101758.31;;;8.49;100.00
79534;BME280;68982;52.160;6.736;2024-02-04T10:23:59;101740.03;;;8.53;100.00
79534;BME280;68982;52.160;6.736;2024-02-04T10:26:29;101740.50;;;8.48;100.00
79534;BME280;68982;52.160;6.736;2024-02-04T10:28:59;101742.59;;;8.54;100.00
79534;BME280;68982;52.160;6.736;2024-02-04T10:31:26;101742.19;;;8.49;100.00
79534;BME280;68982;52.160;6.736;2024-02-04T10:33:51;101745.56;;;8.51;100.00
79534;BME280;68982;52.160;6.736;2024-02-04T10:36:17;101743.09;;;8.58;100.00
79534;BME280;68982;52.160;6.736;2024-02-04T10:38:42;101756.09;;;8.62;100.00
79534;BME280;68982;52.160;6.736;2024-02-04T10:41:15;101744.34;;;8.63;100.00
79534;BME280;68982;52.160;6.736;2024-02-04T10:43:42;101746.25;;;8.71;100.00
79534;BME280;68982;52.160;6.736;2024-02-04T10:46:22;101748.81;;;8.73;100.00
79534;BME280;68982;52.160;6.736;2024-02-04T10:48:52;101743.75;;;8.69;100.00
79534;BME280;68982;52.160;6.736;2024-02-04T10:51:24;101755.03;;;8.73;100.00
79534;BME280;68982;52.160;6.736;2024-02-04T10:53:51;101760.25;;;8.75;100.00
79534;BME280;68982;52.160;6.736;2024-02-04T10:56:43;101763.94;;;8.74;100.00
79534;BME280;68982;52.160;6.736;2024-02-04T10:59:09;101749.34;;;8.76;100.00
79534;BME280;68982;52.160;6.736;2024-02-04T11:01:38;101735.72;;;8.78;100.00
79534;BME280;68982;52.160;6.736;2024-02-04T11:04:04;101737.94;;;8.82;100.00
79534;BME280;68982;52.160;6.736;2024-02-04T11:06:30;101751.34;;;8.92;100.00
79534;BME280;68982;52.160;6.736;2024-02-04T11:08:56;101744.56;;;8.88;100.00
79534;BME280;68982;52.160;6.736;2024-02-04T11:11:23;101742.25;;;8.93;100.00
79534;BME280;68982;52.160;6.736;2024-02-04T11:13:54;101727.41;;;8.89;100.00
79534;BME280;68982;52.160;6.736;2024-02-04T11:16:37;101742.78;;;8.97;100.00
79534;BME280;68982;52.160;6.736;2024-02-04T11:19:16;101740.63;;;9.00;100.00
79534;BME280;68982;52.160;6.736;2024-02-04T11:26:44;101727.72;;;9.04;100.00
79534;BME280;68982;52.160;6.736;2024-02-04T11:29:10;101723.16;;;9.04;100.00
79534;BME280;68982;52.160;6.736;2024-02-04T11:31:38;101718.47;;;9.06;100.00
79534;BME280;68982;52.160;6.736;2024-02-04T11:34:05;101704.25;;;9.14;100.00
79534;BME280;68982;52.160;6.736;2024-02-04T11:36:38;101697.09;;;9.23;100.00
79534;BME280;68982;52.160;6.736;2024-02-04T11:39:11;101704.81;;;9.26;100.00
79534;BME280;68982;52.160;6.736;2024-02-04T11:41:45;101696.28;;;9.30;100.00
79534;BME280;68982;52.160;6.736;2024-02-04T11:44:12;101701.81;;;9.29;100.00
79534;BME280;68982;52.160;6.736;2024-02-04T11:46:37;101710.56;;;9.31;100.00
79534;BME280;68982;52.160;6.736;2024-02-04T11:49:03;101713.66;;;9.36;100.00
79534;BME280;68982;52.160;6.736;2024-02-04T11:51:29;101704.56;;;9.37;100.00
79534;BME280;68982;52.160;6.736;2024-02-04T11:53:55;101714.09;;;9.31;100.00
79534;BME280;68982;52.160;6.736;2024-02-04T11:56:21;101711.59;;;9.30;100.00
79534;BME280;68982;52.160;6.736;2024-02-04T11:58:49;101708.34;;;9.26;100.00
79534;BME280;68982;52.160;6.736;2024-02-04T12:01:14;101701.19;;;9.35;100.00
79534;BME280;68982;52.160;6.736;2024-02-04T12:03:40;101704.75;;;9.44;100.00
79534;BME280;68982;52.160;6.736;2024-02-04T12:06:06;101697.81;;;9.33;100.00
79534;BME280;68982;52.160;6.736;2024-02-04T12:08:32;101699.88;;;9.39;100.00
79534;BME280;68982;52.160;6.736;2024-02-04T12:10:59;101680.19;;;9.39;100.00
79534;BME280;68982;52.160;6.736;2024-02-04T12:13:24;101677.69;;;9.45;100.00
79534;BME280;68982;52.160;6.736;2024-02-04T12:15:50;101684.41;;;9.41;100.00
79534;BME280;68982;52.160;6.736;2024-02-04T12:18:16;101685.88;;;9.36;100.00
79534;BME280;68982;52.160;6.736;2024-02-04T12:20:45;101678.19;;;9.41;100.00
79534;BME280;68982;52.160;6.736;2024-02-04T12:23:12;101675.44;;;9.32;100.00
79534;BME280;68982;52.160;6.736;2024-02-04T12:25:37;101688.06;;;9.32;100.00
79534;BME280;68982;52.160;6.736;2024-02-04T12:28:03;101680.28;;;9.29;100.00
79534;BME280;68982;52.160;6.736;2024-02-04T12:30:30;101676.75;;;9.28;100.00
79534;BME280;68982;52.160;6.736;2024-02-04T12:33:00;101676.75;;;9.28;100.00
79534;BME280;68982;52.160;6.736;2024-02-04T12:35:29;101663.63;;;9.25;100.00
79534;BME280;68982;52.160;6.736;2024-02-04T12:37:55;101677.06;;;9.25;100.00
79534;BME280;68982;52.160;6.736;2024-02-04T12:40:25;101676.53;;;9.22;100.00
79534;BME280;68982;52.160;6.736;2024-02-04T12:42:55;101685.63;;;9.21;100.00
79534;BME280;68982;52.160;6.736;2024-02-04T12:45:24;101671.97;;;9.14;100.00
79534;BME280;68982;52.160;6.736;2024-02-04T12:47:57;101675.03;;;9.19;100.00
79534;BME280;68982;52.160;6.736;2024-02-04T12:50:23;101662.59;;;9.18;100.00
79534;BME280;68982;52.160;6.736;2024-02-04T12:53:01;101682.75;;;9.22;100.00